Millerstown, Kentucky
Current Conditions -  °F | °C
As of 10:15 PM on Tuesday 27 Jan 2015 (Local Time) from KGLW Reporting Station
Overcast Overcast  
Wind Chill: 32°   Ceiling: 2300
Heat Index: 32°   Visibility: 7mi
Dew Point: 28°   Wind: 3mph
Humidity: 86%   Direction: 20°NNE
Pressure: 30.22"   Gusts: NA
Location:  37.4262°N, 86.1465°W
Report Text: KGLW 280415Z AUTO 02003KT 7SM OVC023 00/M02 A3022 RMK AO2 T00001021
Loading
Personal Weather Stations






























Interactive Weather Map New forecast layout! Learn more

10-Day Weather Forecast

Advertisements
Track Severe Weather on mobile